createdAt,value
2018-07-27T00:01:42.339Z,46.89
2018-07-27T00:04:11.097Z,46.80
2018-07-27T00:06:39.726Z,46.61
2018-07-27T00:09:10.645Z,47.04
2018-07-27T00:11:39.327Z,46.86
2018-07-27T00:14:08.001Z,46.94
2018-07-27T00:16:36.540Z,46.87
2018-07-27T00:19:05.669Z,46.88
2018-07-27T00:21:34.983Z,47.11
2018-07-27T00:24:03.519Z,46.96
2018-07-27T00:26:31.995Z,46.87
2018-07-27T00:29:00.615Z,46.98
2018-07-27T00:31:29.139Z,47.06
2018-07-27T00:33:57.681Z,47.06
2018-07-27T00:36:26.200Z,47.09
2018-07-27T00:38:54.767Z,46.78
2018-07-27T00:41:23.432Z,46.71
2018-07-27T00:43:51.980Z,46.95
2018-07-27T00:46:20.469Z,47.22
2018-07-27T00:48:48.960Z,47.21
2018-07-27T00:51:17.451Z,47.12
2018-07-27T00:53:46.069Z,46.83
2018-07-27T00:56:14.563Z,47.27
2018-07-27T00:58:43.387Z,47.17
2018-07-27T01:01:11.863Z,47.16
2018-07-27T01:03:40.360Z,47.20
2018-07-27T01:06:08.879Z,47.25
2018-07-27T01:08:37.356Z,47.17
2018-07-27T01:11:06.127Z,47.34
2018-07-27T01:13:34.987Z,47.17
2018-07-27T01:16:03.577Z,47.19
2018-07-27T01:18:32.207Z,47.27
2018-07-27T01:21:00.778Z,47.27
2018-07-27T01:23:29.277Z,47.21
2018-07-27T01:25:57.799Z,47.38
2018-07-27T01:28:26.304Z,47.23
2018-07-27T01:30:54.764Z,47.35
2018-07-27T01:33:23.364Z,47.48
2018-07-27T01:35:51.975Z,47.54
2018-07-27T01:38:20.741Z,47.27
2018-07-27T01:40:49.536Z,47.48
2018-07-27T01:43:18.147Z,47.19
2018-07-27T01:45:46.798Z,47.07
2018-07-27T01:48:15.302Z,47.62
2018-07-27T01:50:43.918Z,47.58
2018-07-27T01:53:12.553Z,47.39
2018-07-27T01:55:41.193Z,47.39
2018-07-27T01:58:09.880Z,47.67
2018-07-27T02:00:38.354Z,47.79
2018-07-27T02:03:07.116Z,47.63
2018-07-27T02:05:35.777Z,47.75
2018-07-27T02:08:04.292Z,47.65
2018-07-27T02:10:32.840Z,47.77
2018-07-27T02:13:01.450Z,47.92
2018-07-27T02:15:30.217Z,48.13
2018-07-27T02:17:58.720Z,47.90
2018-07-27T02:20:27.272Z,47.83
2018-07-27T02:22:56.053Z,48.10
2018-07-27T02:25:24.647Z,47.99
2018-07-27T02:27:53.402Z,47.92
2018-07-27T02:30:21.957Z,48.16
2018-07-27T02:32:50.572Z,48.48
2018-07-27T02:35:19.299Z,48.34
2018-07-27T02:37:47.825Z,48.37
2018-07-27T02:40:16.353Z,48.14
2018-07-27T02:42:44.909Z,48.22
2018-07-27T02:45:13.413Z,48.09
2018-07-27T02:47:46.145Z,48.18
2018-07-27T02:50:14.717Z,48.10
2018-07-27T02:52:43.297Z,48.27
2018-07-27T02:55:11.824Z,48.12
2018-07-27T02:57:40.366Z,48.03
2018-07-27T03:00:09.068Z,48.17
2018-07-27T03:02:37.568Z,48.27
2018-07-27T03:05:06.740Z,48.30
2018-07-27T03:07:35.470Z,48.25
2018-07-27T03:10:04.233Z,48.13
2018-07-27T03:12:32.792Z,48.27
2018-07-27T03:15:01.313Z,48.35
2018-07-27T03:17:29.844Z,48.16
2018-07-27T03:19:58.394Z,48.19
2018-07-27T03:22:26.924Z,48.46
2018-07-27T03:24:55.546Z,48.27
2018-07-27T03:27:24.062Z,48.48
2018-07-27T03:29:52.615Z,48.32
2018-07-27T03:32:21.187Z,48.78
2018-07-27T03:34:49.777Z,48.82
2018-07-27T03:37:18.263Z,48.63
2018-07-27T03:39:46.753Z,48.68
2018-07-27T03:42:15.345Z,48.62
2018-07-27T03:44:43.844Z,48.69
2018-07-27T03:47:12.372Z,48.56
2018-07-27T03:49:40.936Z,48.81
2018-07-27T03:52:09.530Z,48.68
2018-07-27T03:54:38.017Z,48.48
2018-07-27T03:57:06.545Z,48.44
2018-07-27T03:59:35.044Z,48.50
2018-07-27T04:02:03.584Z,48.58
2018-07-27T04:04:32.121Z,48.64
2018-07-27T04:07:00.646Z,48.60
2018-07-27T04:09:29.358Z,48.45
2018-07-27T04:11:57.961Z,48.81
2018-07-27T04:14:26.483Z,48.61
2018-07-27T04:16:55.010Z,48.72
2018-07-27T04:19:23.480Z,48.81
2018-07-27T04:21:51.980Z,51.20
2018-07-27T04:24:20.471Z,57.11
2018-07-27T04:26:48.991Z,61.70
2018-07-27T04:29:17.612Z,65.70
2018-07-27T04:31:46.188Z,68.18
2018-07-27T04:34:14.704Z,71.57
2018-07-27T04:36:43.167Z,73.67
2018-07-27T04:39:12.250Z,75.45
2018-07-27T04:41:40.719Z,76.16
2018-07-27T04:44:09.184Z,76.31
2018-07-27T04:46:37.713Z,76.74
2018-07-27T04:49:06.291Z,78.10
2018-07-27T04:51:34.761Z,77.39
2018-07-27T04:54:03.260Z,77.59
2018-07-27T04:56:31.877Z,77.46
2018-07-27T04:59:00.287Z,78.64
2018-07-27T05:01:28.852Z,78.39
2018-07-27T05:03:57.379Z,80.24
2018-07-27T05:06:25.953Z,80.40
2018-07-27T05:08:59.675Z,82.26
2018-07-27T05:11:28.344Z,82.54
2018-07-27T05:13:56.987Z,83.39
2018-07-27T05:16:25.674Z,84.13
2018-07-27T05:18:54.157Z,84.78
2018-07-27T05:21:22.647Z,85.31
2018-07-27T05:23:51.123Z,86.17
2018-07-27T05:26:19.608Z,86.58
2018-07-27T05:28:48.116Z,87.42
2018-07-27T05:31:16.611Z,85.92
2018-07-27T05:33:45.097Z,85.56
2018-07-27T05:36:13.560Z,86.07
2018-07-27T05:38:42.057Z,84.99
2018-07-27T05:41:10.576Z,84.93
2018-07-27T05:43:39.260Z,85.06
2018-07-27T05:46:07.737Z,85.53
2018-07-27T05:48:36.213Z,85.75
2018-07-27T05:51:04.912Z,84.77
2018-07-27T05:53:33.476Z,85.32
2018-07-27T05:56:02.321Z,83.30
2018-07-27T05:58:30.876Z,83.73
2018-07-27T06:00:59.485Z,83.71
2018-07-27T06:03:27.950Z,82.80
2018-07-27T06:05:56.403Z,82.93
2018-07-27T06:08:24.872Z,82.50
2018-07-27T06:10:53.364Z,79.49
2018-07-27T06:13:21.866Z,79.87
2018-07-27T06:15:50.365Z,79.72
2018-07-27T06:18:18.827Z,79.83
2018-07-27T06:20:47.372Z,80.23
2018-07-27T06:23:15.851Z,79.60
2018-07-27T06:25:45.693Z,79.60
2018-07-27T06:28:14.239Z,78.37
2018-07-27T06:30:42.711Z,77.15
2018-07-27T06:33:11.185Z,78.70
2018-07-27T06:35:39.661Z,77.26
2018-07-27T06:38:08.136Z,76.55
2018-07-27T06:40:36.612Z,77.97
2018-07-27T06:43:05.092Z,77.07
2018-07-27T06:45:33.781Z,77.42
2018-07-27T06:48:02.425Z,77.01
2018-07-27T06:50:30.995Z,76.02
2018-07-27T06:52:59.843Z,73.04
2018-07-27T06:55:28.760Z,72.69
2018-07-27T06:57:57.649Z,74.40
2018-07-27T07:00:26.274Z,75.00
2018-07-27T07:02:54.811Z,72.97
2018-07-27T07:05:23.320Z,71.42
2018-07-27T07:07:52.047Z,70.35
2018-07-27T07:10:20.665Z,71.14
2018-07-27T07:12:49.649Z,70.80
2018-07-27T07:15:18.283Z,70.32
2018-07-27T07:17:46.901Z,69.73
2018-07-27T07:20:15.565Z,69.11
2018-07-27T07:22:44.185Z,68.56
2018-07-27T07:25:12.965Z,69.12
2018-07-27T07:27:41.640Z,68.18
2018-07-27T07:30:10.298Z,65.75
2018-07-27T07:32:39.035Z,65.82
2018-07-27T07:35:07.740Z,66.74
2018-07-27T07:37:37.405Z,67.79
2018-07-27T07:40:06.680Z,66.12
2018-07-27T07:42:35.538Z,64.45
2018-07-27T07:45:04.092Z,64.83
2018-07-27T07:47:32.843Z,65.84
2018-07-27T07:50:01.412Z,63.94
2018-07-27T07:52:30.138Z,64.86
2018-07-27T07:54:58.725Z,65.64
2018-07-27T07:57:27.340Z,65.55
2018-07-27T07:59:56.135Z,65.34
2018-07-27T08:02:25.146Z,66.20
2018-07-27T08:04:54.028Z,66.21
2018-07-27T08:07:22.824Z,67.20
2018-07-27T08:09:51.616Z,66.54
2018-07-27T08:12:20.221Z,65.45
2018-07-27T08:14:49.035Z,63.95
2018-07-27T08:17:17.989Z,64.06
2018-07-27T08:19:46.569Z,63.43
2018-07-27T08:22:15.189Z,63.08
2018-07-27T08:24:43.848Z,62.52
2018-07-27T08:27:12.396Z,63.08
2018-07-27T08:29:43.039Z,61.91
2018-07-27T08:32:11.892Z,62.05
2018-07-27T08:34:40.632Z,61.13
2018-07-27T08:37:09.519Z,61.12
2018-07-27T08:39:42.392Z,60.74
2018-07-27T08:42:11.192Z,60.14
2018-07-27T08:44:41.107Z,58.59
2018-07-27T08:47:09.936Z,58.22
2018-07-27T08:49:38.505Z,57.90
2018-07-27T08:52:07.041Z,59.12
2018-07-27T08:54:35.732Z,57.42
2018-07-27T08:57:04.561Z,57.97
2018-07-27T08:59:33.215Z,57.32
2018-07-27T09:02:01.829Z,55.67
2018-07-27T09:04:30.398Z,56.67
2018-07-27T09:06:59.523Z,54.86
2018-07-27T09:09:28.128Z,54.69
2018-07-27T09:11:56.924Z,55.12
2018-07-27T09:14:25.603Z,54.52
2018-07-27T09:16:54.344Z,53.86
2018-07-27T09:19:22.995Z,53.86
2018-07-27T09:21:52.222Z,54.74
2018-07-27T09:24:20.997Z,53.52
2018-07-27T09:26:49.537Z,53.24
2018-07-27T09:29:19.094Z,53.12
2018-07-27T09:31:47.681Z,52.91
2018-07-27T09:34:16.668Z,53.41
2018-07-27T09:36:45.299Z,52.61
2018-07-27T09:39:13.941Z,52.80
2018-07-27T09:41:42.504Z,52.61
2018-07-27T09:44:11.133Z,53.30
2018-07-27T09:46:39.866Z,53.99
2018-07-27T09:49:08.344Z,53.88
2018-07-27T09:51:37.154Z,52.48
2018-07-27T09:54:05.889Z,52.83
2018-07-27T09:56:34.605Z,51.82
2018-07-27T09:59:03.348Z,53.23
2018-07-27T10:01:32.004Z,52.96
2018-07-27T10:04:00.855Z,53.71
2018-07-27T10:06:29.479Z,52.90
2018-07-27T10:08:58.043Z,54.94
2018-07-27T10:11:26.672Z,53.84
2018-07-27T10:13:55.480Z,53.39
2018-07-27T10:16:24.114Z,52.59
2018-07-27T10:18:52.905Z,52.61
2018-07-27T10:21:21.677Z,52.40
2018-07-27T10:23:50.197Z,51.95
2018-07-27T10:26:18.747Z,51.65
2018-07-27T10:28:47.248Z,50.89
2018-07-27T10:31:15.926Z,51.04
2018-07-27T10:33:44.595Z,53.18
2018-07-27T10:36:13.317Z,52.36
2018-07-27T10:38:42.026Z,53.99
2018-07-27T10:41:10.587Z,52.51
2018-07-27T10:43:39.047Z,51.85
2018-07-27T10:46:07.917Z,53.66
2018-07-27T10:48:36.459Z,50.72
2018-07-27T10:51:05.196Z,51.05
2018-07-27T10:53:33.916Z,51.39
2018-07-27T10:56:02.568Z,51.70
2018-07-27T10:58:31.220Z,51.82
2018-07-27T11:00:59.795Z,51.14
2018-07-27T11:03:28.380Z,50.53
2018-07-27T11:05:57.044Z,52.05
2018-07-27T11:08:25.927Z,49.53
2018-07-27T11:10:54.471Z,48.21
2018-07-27T11:13:23.024Z,48.45
2018-07-27T11:15:51.779Z,47.78
2018-07-27T11:18:20.329Z,47.62
2018-07-27T11:20:48.978Z,47.09
2018-07-27T11:23:17.801Z,47.41
2018-07-27T11:25:46.315Z,48.34
2018-07-27T11:28:14.799Z,47.37
2018-07-27T11:30:43.308Z,47.26
2018-07-27T11:33:11.796Z,48.42
2018-07-27T11:35:40.315Z,48.34
2018-07-27T11:38:08.916Z,46.79
2018-07-27T11:40:37.401Z,46.91
2018-07-27T11:43:06.460Z,47.07
2018-07-27T11:45:34.911Z,47.69
2018-07-27T11:48:03.369Z,47.97
2018-07-27T11:50:31.837Z,46.70
2018-07-27T11:53:00.296Z,47.57
2018-07-27T11:55:28.759Z,45.37
2018-07-27T11:57:57.515Z,44.99
2018-07-27T12:00:26.012Z,44.05
2018-07-27T12:02:54.489Z,43.57
2018-07-27T12:05:23.711Z,42.85
2018-07-27T12:07:52.178Z,43.02
2018-07-27T12:10:20.633Z,42.35
2018-07-27T12:12:49.101Z,42.32
2018-07-27T12:15:17.849Z,42.25
2018-07-27T12:17:46.253Z,42.31
2018-07-27T12:20:14.763Z,42.13
2018-07-27T12:22:43.220Z,42.16
2018-07-27T12:25:12.014Z,42.07
2018-07-27T12:27:40.500Z,42.19
2018-07-27T12:30:08.966Z,41.62
2018-07-27T12:32:37.572Z,41.41
2018-07-27T12:35:06.019Z,42.47
2018-07-27T12:37:34.569Z,41.17
2018-07-27T12:40:03.011Z,40.85
2018-07-27T12:42:31.515Z,39.29
2018-07-27T12:44:59.973Z,39.37
2018-07-27T12:47:28.452Z,38.47
2018-07-27T12:49:56.918Z,39.04
2018-07-27T12:52:25.381Z,38.08
2018-07-27T12:54:53.827Z,37.39
2018-07-27T12:57:22.290Z,37.70
2018-07-27T12:59:50.787Z,37.45
2018-07-27T13:02:19.265Z,38.32
2018-07-27T13:04:47.769Z,39.04
2018-07-27T13:07:16.233Z,39.39
2018-07-27T13:09:44.704Z,39.47
2018-07-27T13:12:13.213Z,39.84
2018-07-27T13:14:41.745Z,39.71
2018-07-27T13:17:10.213Z,40.14
2018-07-27T13:19:38.684Z,40.32
2018-07-27T13:22:07.293Z,40.85
2018-07-27T13:27:04.292Z,41.02
2018-07-27T13:29:32.757Z,40.83
2018-07-27T13:32:01.226Z,41.40
2018-07-27T13:34:35.985Z,41.68
2018-07-27T13:37:04.891Z,41.93
2018-07-27T13:39:34.029Z,41.95
2018-07-27T13:42:03.505Z,42.55
2018-07-27T13:44:33.237Z,42.48
2018-07-27T13:47:02.226Z,42.85
2018-07-27T13:49:30.739Z,42.75
2018-07-27T13:51:59.718Z,42.85
2018-07-27T13:54:29.136Z,42.85
2018-07-27T13:56:57.604Z,43.39
2018-07-27T13:59:26.056Z,43.55
2018-07-27T14:01:54.513Z,43.67
2018-07-27T14:04:23.004Z,43.95
2018-07-27T14:06:52.716Z,44.05
2018-07-27T14:09:21.171Z,44.06
2018-07-27T14:11:49.635Z,44.22
2018-07-27T14:14:18.167Z,43.88
2018-07-27T14:16:46.628Z,44.00
2018-07-27T14:19:16.167Z,44.19
2018-07-27T14:21:44.691Z,44.15
2018-07-27T14:24:13.137Z,44.69
2018-07-27T14:26:41.628Z,45.01
2018-07-27T14:29:10.111Z,44.73
2018-07-27T14:31:38.630Z,44.79
2018-07-27T14:34:07.648Z,44.71
2018-07-27T14:36:36.103Z,44.73
2018-07-27T14:39:07.292Z,45.01
2018-07-27T14:41:35.887Z,45.01
2018-07-27T14:44:04.640Z,45.38
2018-07-27T14:46:33.445Z,45.76
2018-07-27T14:49:01.908Z,45.80
2018-07-27T14:51:30.399Z,45.71
2018-07-27T14:53:58.851Z,45.48
2018-07-27T14:56:27.317Z,45.60
2018-07-27T14:58:55.812Z,45.65
2018-07-27T15:01:24.289Z,45.59
2018-07-27T15:03:52.774Z,45.65
2018-07-27T15:06:21.224Z,45.73
2018-07-27T15:08:49.701Z,45.87
2018-07-27T15:11:18.185Z,46.20
2018-07-27T15:13:46.680Z,46.00
2018-07-27T15:16:15.233Z,46.34
2018-07-27T15:18:43.675Z,46.25
2018-07-27T15:21:12.198Z,46.09
2018-07-27T15:23:40.737Z,45.94
2018-07-27T15:26:09.440Z,46.00
2018-07-27T15:28:38.427Z,45.95
2018-07-27T15:31:07.197Z,45.92
2018-07-27T15:33:35.684Z,46.00
2018-07-27T15:36:04.159Z,46.18
2018-07-27T15:38:32.648Z,47.82
2018-07-27T15:41:01.152Z,48.09
2018-07-27T15:43:29.636Z,48.61
2018-07-27T15:45:58.107Z,48.85
2018-07-27T15:48:26.804Z,49.20
2018-07-27T15:50:55.298Z,49.23
2018-07-27T15:53:23.793Z,47.06
2018-07-27T15:55:52.384Z,47.21
2018-07-27T15:58:20.919Z,47.05
2018-07-27T16:00:49.428Z,46.86
2018-07-27T16:03:17.962Z,46.57
2018-07-27T16:05:46.505Z,45.49
2018-07-27T16:08:15.045Z,45.71
2018-07-27T16:10:43.568Z,48.05
2018-07-27T16:13:12.116Z,47.31
2018-07-27T16:15:40.628Z,47.84
2018-07-27T16:18:09.205Z,48.22
2018-07-27T16:20:37.697Z,48.29
2018-07-27T16:23:06.331Z,48.27
2018-07-27T16:25:34.883Z,49.15
2018-07-27T16:28:03.469Z,49.32
2018-07-27T16:30:32.094Z,49.60
2018-07-27T16:33:00.703Z,49.29
2018-07-27T16:35:29.289Z,49.11
2018-07-27T16:37:57.864Z,49.03
2018-07-27T16:40:26.456Z,48.81
2018-07-27T16:42:55.008Z,48.76
2018-07-27T16:45:23.552Z,48.76
2018-07-27T16:47:52.100Z,48.62
2018-07-27T16:50:20.696Z,48.35
2018-07-27T16:52:49.325Z,48.67
2018-07-27T16:55:18.589Z,48.56
2018-07-27T16:57:47.479Z,48.31
2018-07-27T17:00:16.198Z,48.10
2018-07-27T17:02:45.082Z,47.88
2018-07-27T17:05:13.886Z,48.09
2018-07-27T17:07:42.687Z,48.14
2018-07-27T17:10:11.565Z,48.01
2018-07-27T17:12:40.360Z,48.10
2018-07-27T17:15:09.048Z,48.04
2018-07-27T17:17:37.840Z,48.17
2018-07-27T17:20:07.327Z,48.08
2018-07-27T17:22:36.256Z,48.12
2018-07-27T17:25:05.362Z,47.90
2018-07-27T17:27:34.124Z,48.19
2018-07-27T17:30:02.858Z,48.28
2018-07-27T17:32:31.608Z,48.19
2018-07-27T17:35:00.425Z,48.28
2018-07-27T17:37:29.255Z,48.30
2018-07-27T17:39:57.934Z,48.36
2018-07-27T17:42:26.520Z,48.18
2018-07-27T17:44:55.102Z,48.43
2018-07-27T17:47:23.641Z,48.33
2018-07-27T17:49:52.287Z,48.28
2018-07-27T17:52:20.804Z,48.21
2018-07-27T17:54:49.337Z,48.28
2018-07-27T17:57:17.985Z,48.35
2018-07-27T17:59:46.671Z,48.42
2018-07-27T18:02:15.276Z,48.42
2018-07-27T18:04:43.865Z,48.50
2018-07-27T18:07:12.509Z,48.33
2018-07-27T18:09:41.093Z,48.39
2018-07-27T18:12:09.656Z,48.50
2018-07-27T18:14:38.293Z,48.41
2018-07-27T18:17:06.866Z,48.56
2018-07-27T18:19:35.429Z,48.56
2018-07-27T18:22:04.064Z,48.38
2018-07-27T18:24:32.667Z,48.44
2018-07-27T18:27:01.152Z,48.47
2018-07-27T18:29:29.768Z,48.53
2018-07-27T18:31:58.417Z,48.45
2018-07-27T18:34:26.989Z,48.44
2018-07-27T18:36:55.769Z,48.44
2018-07-27T18:39:24.464Z,48.56
2018-07-27T18:41:52.988Z,48.58
2018-07-27T18:44:21.637Z,48.45
2018-07-27T18:46:50.215Z,48.71
2018-07-27T18:49:18.781Z,48.38
2018-07-27T18:51:47.336Z,48.64
2018-07-27T18:54:15.932Z,48.70
2018-07-27T18:56:44.483Z,48.51
2018-07-27T18:59:12.991Z,48.66
2018-07-27T19:01:41.476Z,48.57
2018-07-27T19:04:09.952Z,48.78
2018-07-27T19:06:38.777Z,48.78
2018-07-27T19:09:09.889Z,48.96
2018-07-27T19:11:38.454Z,48.77
2018-07-27T19:14:07.025Z,49.02
2018-07-27T19:16:35.499Z,48.80
2018-07-27T19:19:04.028Z,49.09
2018-07-27T19:21:32.491Z,49.03
2018-07-27T19:24:00.961Z,48.81
2018-07-27T19:26:29.431Z,49.18
2018-07-27T19:28:57.969Z,49.00
2018-07-27T19:31:26.472Z,49.06
2018-07-27T19:33:54.942Z,48.96
2018-07-27T19:36:23.402Z,48.96
2018-07-27T19:38:51.924Z,49.33
2018-07-27T19:41:20.417Z,49.49
2018-07-27T19:43:49.087Z,49.56
2018-07-27T19:46:17.728Z,49.55
2018-07-27T19:48:46.321Z,49.64
2018-07-27T19:51:14.936Z,49.54
2018-07-27T19:53:43.504Z,49.83
2018-07-27T19:56:12.085Z,49.97
2018-07-27T19:58:40.611Z,49.78
2018-07-27T20:01:09.177Z,49.89
2018-07-27T20:03:37.759Z,50.25
2018-07-27T20:06:06.564Z,49.44
2018-07-27T20:08:35.082Z,47.03
2018-07-27T20:11:03.629Z,44.45
2018-07-27T20:13:32.159Z,42.60
2018-07-27T20:16:00.704Z,43.30
2018-07-27T20:18:29.232Z,43.78
2018-07-27T20:20:57.817Z,43.98
2018-07-27T20:23:26.602Z,44.61
2018-07-27T20:25:56.741Z,45.10
2018-07-27T20:28:25.554Z,45.39
2018-07-27T20:30:54.165Z,45.59
2018-07-27T20:33:22.687Z,45.96
2018-07-27T20:35:51.215Z,46.09
2018-07-27T20:38:19.732Z,46.00
2018-07-27T20:40:48.259Z,46.30
2018-07-27T20:43:16.747Z,46.55
2018-07-27T20:45:45.337Z,46.83
2018-07-27T20:48:13.842Z,46.70
2018-07-27T20:50:42.401Z,47.13
2018-07-27T20:53:10.942Z,47.18
2018-07-27T20:55:39.545Z,47.14
2018-07-27T20:58:08.075Z,47.39
2018-07-27T21:00:36.613Z,47.45
2018-07-27T21:03:06.056Z,47.35
2018-07-27T21:05:34.602Z,47.36
2018-07-27T21:08:03.161Z,47.32
2018-07-27T21:10:31.819Z,47.41
2018-07-27T21:13:00.377Z,47.33
2018-07-27T21:15:28.928Z,47.56
2018-07-27T21:17:57.520Z,47.73
2018-07-27T21:20:26.108Z,47.75
2018-07-27T21:22:54.779Z,47.71
2018-07-27T21:25:23.449Z,47.76
2018-07-27T21:27:52.061Z,47.59
2018-07-27T21:30:20.637Z,47.82
2018-07-27T21:32:49.288Z,47.85
2018-07-27T21:35:17.931Z,48.22
2018-07-27T21:37:46.556Z,48.28
2018-07-27T21:40:15.072Z,47.89
2018-07-27T21:42:43.632Z,48.16
2018-07-27T21:45:12.300Z,47.88
2018-07-27T21:47:40.840Z,48.25
2018-07-27T21:50:09.564Z,48.11
2018-07-27T21:52:38.404Z,48.22
2018-07-27T21:55:06.991Z,48.21
2018-07-27T21:57:35.462Z,48.21
2018-07-27T22:00:04.078Z,48.13
2018-07-27T22:02:32.613Z,48.29
2018-07-27T22:05:01.120Z,48.51
2018-07-27T22:07:29.693Z,48.39
2018-07-27T22:09:58.221Z,48.66
2018-07-27T22:12:27.240Z,48.55
2018-07-27T22:14:55.865Z,48.57
2018-07-27T22:17:24.506Z,48.69
2018-07-27T22:19:53.096Z,48.63
2018-07-27T22:22:21.731Z,48.66
2018-07-27T22:24:50.330Z,48.84
2018-07-27T22:27:18.987Z,48.66
2018-07-27T22:29:47.629Z,48.76
2018-07-27T22:32:16.158Z,48.86
2018-07-27T22:34:44.715Z,48.78
2018-07-27T22:37:13.227Z,48.70
2018-07-27T22:39:41.702Z,48.96
2018-07-27T22:42:10.263Z,48.94
2018-07-27T22:44:38.751Z,48.84
2018-07-27T22:47:07.284Z,48.96
2018-07-27T22:49:35.859Z,49.04
2018-07-27T22:52:04.391Z,49.02
2018-07-27T22:54:32.992Z,49.09
2018-07-27T22:57:01.610Z,48.89
2018-07-27T22:59:30.122Z,49.10
2018-07-27T23:01:58.940Z,49.02
2018-07-27T23:04:27.524Z,49.05
2018-07-27T23:06:56.160Z,49.16
2018-07-27T23:09:24.795Z,49.06
2018-07-27T23:11:53.265Z,49.17
2018-07-27T23:14:21.747Z,49.34
2018-07-27T23:16:50.242Z,49.17
2018-07-27T23:19:18.759Z,49.13
2018-07-27T23:21:47.330Z,49.18
2018-07-27T23:24:15.848Z,49.29
2018-07-27T23:26:44.586Z,49.06
2018-07-27T23:29:13.117Z,49.20
2018-07-27T23:31:41.660Z,49.39
2018-07-27T23:34:10.201Z,49.26
2018-07-27T23:36:38.865Z,49.35
2018-07-27T23:39:10.433Z,49.26
2018-07-27T23:41:39.118Z,49.34
2018-07-27T23:44:07.645Z,49.13
2018-07-27T23:46:36.232Z,49.34
2018-07-27T23:49:04.761Z,49.54
2018-07-27T23:51:33.779Z,49.48
2018-07-27T23:54:02.235Z,49.69
2018-07-27T23:56:30.800Z,49.54
2018-07-27T23:58:59.463Z,49.45
